• Join FlightAware (Why Join?)
  • Login
  • US Flag 
09:44PM EDT


 

Airport Tracker/Info


-or-


 

Live Flight TrackerFlight Track Log ✈ N53NW ✈ 15-May-2013 ✈ KPWK - KBIV

Flight Track Log - Related Links

Times and Time Zones

All times are in EDT time to prevent confusion due to time zone crossing. See the N53NW flight status page for this flight to view local times or setup timezone preferences in your user account.

Time Position Orientation Groundspeed Altitude Reporting Facility
EDT Latitude Longitude Course Direction KTS MPH feet Rate Location/Type
01:24PM 42.1500 -87.9167 334° Northwest 190 219 2,000  Level Chicago TRACON
01:25PM 42.2000 -87.9500 334° Northwest 228 262 3,700 1,200 Climbing Chicago TRACON
01:26PM 42.2450 -87.9653 346° North 219 252 4,100 1,560 Climbing Chicago Center
01:27PM 42.3039 -87.9928 341° North 223 257 6,600 2,220 Climbing Chicago Center
01:28PM 42.3617 -88.0175 342° North 230 265 8,800 1,620 Climbing Chicago Center
01:29PM 42.4392 -88.0397 348° North 243 280 10,000 1,080 Climbing Chicago Center
01:30PM 42.5081 -88.0586 349° North 251 289 11,100 960 Climbing Chicago Center
01:31PM 42.5822 -88.0706 353° North 283 326 12,000 420 Climbing Chicago Center
01:32PM 42.6656 -88.0194 24° Northeast 325 374 12,000 -300 Level Chicago Center
01:33PM 42.7383 -87.9483 36° Northeast 340 391 11,400 -540 Descending Chicago Center
01:34PM 42.7914 -87.8133 62° Northeast 348 400 11,000 -240 Descending Chicago Center
01:35PM 42.7919 -87.6786 90° East 357 411 11,000  Level Chicago Center
01:36PM 42.7889 -87.5461 92° East 353 406 11,000  Level Chicago Center
01:37PM 42.7847 -87.4133 92° East 352 405 11,000  Level Chicago Center
01:38PM 42.7811 -87.2650 92° East 351 404 11,000  Level Chicago Center
01:39PM 42.7767 -87.1350 93° East 347 399 11,000  Level Chicago Center
01:40PM 42.7725 -87.0039 92° East 347 399 11,000  Level Chicago Center
01:41PM 42.7692 -86.8717 92° East 350 403 11,000 -600 Level Chicago Center
01:42PM 42.7650 -86.7400 92° East 350 403 9,800 -1,560 Descending Chicago Center
01:43PM 42.7608 -86.6161 93° East 334 384 7,800 -2,160 Descending Chicago Center
01:44PM 42.7494 -86.4797 96° East 308 354 5,400 -2,160 Descending Chicago Center
01:46PM 42.7447 -86.3775 94° East 285 328 3,400 -1,440 Descending Chicago Center
01:47PM 42.7397 -86.2842 94° East 268 308 2,500 -540 Descending Chicago Center
01:48PM 42.7347 -86.2222 96° East 202 232 2,300 -300 Descending Chicago Center
01:49PM 42.7300 -86.1686 97° East 168 193 2,000 -180 Descending Chicago Center
01:50PM 42.7219 -86.1047 100° East 151 174 2,000 -60 Level Chicago Center
01:51PM 42.7169 -86.0492 97° East 148 170 1,900 -300 Descending Chicago Center
01:52PM 42.7442 -86.0483 North 137 158 1,400 -540 Descending Chicago Center
01:53PM 42.7444 -86.0886 271° West 119 137 800 -600 Descending Chicago Center